PWSweather.com
Personal Weather Stations
Station Observations
K4FB1
Clubhouse Heritage, Lakeland, FL 33812

Clubhouse HeritageLakeland, FL 33812

Lat: 27.969224, Lon: -81.897769

Elevation: 145

Station Type: Davis Vantage Pro2

http://www.ClubhouseWX.com

High Low Average
Temperature 85.6°F29.8°C 72.8°F22.7°C 76.8°F24.9°C
Dew Point 75.2°F24.0°C 66.6°F19.2°C 70.2°F21.2°C
Winds 12.0 mph 19.3 kmh 1.0 mph 1.6 kmh 5.0 mph NE8.0 kmh NE
Wind Gusts 25.0 mph40.2 kmh 6.0 mph9.7 kmh 13.0 mph20.9 kmh
Humidity 88% 67% 80%
Pressure 30.14 in1020.7 mb 30.01 in1016.3 mb -
Precipitation 0.12 in3.0 mm - -
Hour Temp Dew Point Humidity Winds Wind Gusts Pressure Precip Precip Rate Daily Precip Total
12:00 AM 77.6°F25.3°C 70.2°F21.2°C 78% 6.0 mph NE9.7 kmh NE 16.0 mph25.7 kmh 30.15 in1021.0 mb 0.00 in0.0 mm 0.00 in0.0 mm 0.00 in0.0 mm
12:05 AM 77.6°F25.3°C 70.2°F21.2°C 78% 6.0 mph NE9.7 kmh NE 16.0 mph25.7 kmh 30.14 in1020.7 mb 0.00 in0.0 mm 0.00 in0.0 mm 0.00 in0.0 mm
12:10 AM 77.5°F25.3°C 70.1°F21.2°C 78% 7.0 mph NE11.3 kmh NE 15.0 mph24.1 kmh 30.14 in1020.7 mb 0.00 in0.0 mm 0.00 in0.0 mm 0.00 in0.0 mm
12:15 AM 77.5°F25.3°C 70.1°F21.2°C 78% 6.0 mph ENE9.7 kmh ENE 13.0 mph20.9 kmh 30.14 in1020.7 mb 0.00 in0.0 mm 0.00 in0.0 mm 0.00 in0.0 mm
12:20 AM 77.5°F25.3°C 70.1°F21.2°C 78% 6.0 mph ENE9.7 kmh ENE 14.0 mph22.5 kmh 30.14 in1020.7 mb 0.00 in0.0 mm 0.00 in0.0 mm 0.00 in0.0 mm
12:25 AM 77.7°F25.4°C 70.3°F21.3°C 78% 7.0 mph ENE11.3 kmh ENE 18.0 mph29.0 kmh 30.14 in1020.7 mb 0.00 in0.0 mm 0.00 in0.0 mm 0.00 in0.0 mm
12:30 AM 77.7°F25.4°C 70.3°F21.3°C 78% 6.0 mph NE9.7 kmh NE 18.0 mph29.0 kmh 30.14 in1020.7 mb 0.00 in0.0 mm 0.00 in0.0 mm 0.00 in0.0 mm
12:35 AM 77.7°F25.4°C 70.3°F21.3°C 78% 6.0 mph NE9.7 kmh NE 14.0 mph22.5 kmh 30.14 in1020.7 mb 0.00 in0.0 mm 0.00 in0.0 mm 0.00 in0.0 mm
12:40 AM 77.6°F25.3°C 70.6°F21.4°C 79% 6.0 mph NE9.7 kmh NE 15.0 mph24.1 kmh 30.14 in1020.7 mb 0.00 in0.0 mm 0.00 in0.0 mm 0.00 in0.0 mm
12:45 AM 77.5°F25.3°C 70.5°F21.4°C 79% 6.0 mph NE9.7 kmh NE 15.0 mph24.1 kmh 30.14 in1020.7 mb 0.00 in0.0 mm 0.00 in0.0 mm 0.00 in0.0 mm
12:50 AM 77.3°F25.2°C 70.3°F21.3°C 79% 5.0 mph NE8.0 kmh NE 14.0 mph22.5 kmh 30.14 in1020.7 mb 0.00 in0.0 mm 0.00 in0.0 mm 0.00 in0.0 mm
12:55 AM 77.1°F25.1°C 70.1°F21.2°C 79% 5.0 mph NE8.0 kmh NE 13.0 mph20.9 kmh 30.14 in1020.7 mb 0.00 in0.0 mm 0.00 in0.0 mm 0.00 in0.0 mm
01:00 AM 77.0°F25.0°C 70.0°F21.1°C 79% 5.0 mph NE8.0 kmh NE 13.0 mph20.9 kmh 30.14 in1020.7 mb 0.00 in0.0 mm 0.00 in0.0 mm 0.00 in0.0 mm
01:05 AM 76.9°F24.9°C 69.9°F21.1°C 79% 6.0 mph NE9.7 kmh NE 13.0 mph20.9 kmh 30.14 in1020.7 mb 0.00 in0.0 mm 0.00 in0.0 mm 0.00 in0.0 mm
01:10 AM 76.8°F24.9°C 69.8°F21.0°C 79% 7.0 mph ENE11.3 kmh ENE 21.0 mph33.8 kmh 30.13 in1020.3 mb 0.00 in0.0 mm 0.00 in0.0 mm 0.00 in0.0 mm
01:15 AM 76.7°F24.8°C 69.7°F20.9°C 79% 6.0 mph NE9.7 kmh NE 21.0 mph33.8 kmh 30.13 in1020.3 mb 0.00 in0.0 mm 0.00 in0.0 mm 0.00 in0.0 mm
01:20 AM 76.7°F24.8°C 69.7°F20.9°C 79% 7.0 mph ENE11.3 kmh ENE 17.0 mph27.4 kmh 30.13 in1020.3 mb 0.00 in0.0 mm 0.00 in0.0 mm 0.00 in0.0 mm
01:25 AM 76.6°F24.8°C 69.6°F20.9°C 79% 7.0 mph ENE11.3 kmh ENE 17.0 mph27.4 kmh 30.13 in1020.3 mb 0.00 in0.0 mm 0.00 in0.0 mm 0.00 in0.0 mm
01:30 AM 76.6°F24.8°C 69.6°F20.9°C 79% 7.0 mph ENE11.3 kmh ENE 17.0 mph27.4 kmh 30.13 in1020.3 mb 0.00 in0.0 mm 0.00 in0.0 mm 0.00 in0.0 mm
01:35 AM 76.5°F24.7°C 69.5°F20.8°C 79% 7.0 mph ENE11.3 kmh ENE 14.0 mph22.5 kmh 30.12 in1020.0 mb 0.00 in0.0 mm 0.00 in0.0 mm 0.00 in0.0 mm
01:40 AM 76.4°F24.7°C 69.8°F21.0°C 80% 5.0 mph NE8.0 kmh NE 12.0 mph19.3 kmh 30.12 in1020.0 mb 0.00 in0.0 mm 0.00 in0.0 mm 0.00 in0.0 mm
01:45 AM 76.2°F24.6°C 69.6°F20.9°C 80% 4.0 mph ENE6.4 kmh ENE 13.0 mph20.9 kmh 30.12 in1020.0 mb 0.00 in0.0 mm 0.00 in0.0 mm 0.00 in0.0 mm
01:50 AM 76.1°F24.5°C 69.1°F20.6°C 79% 6.0 mph ENE9.7 kmh ENE 14.0 mph22.5 kmh 30.12 in1020.0 mb 0.00 in0.0 mm 0.00 in0.0 mm 0.00 in0.0 mm
01:55 AM 76.2°F24.6°C 69.2°F20.7°C 79% 7.0 mph NE11.3 kmh NE 14.0 mph22.5 kmh 30.12 in1020.0 mb 0.00 in0.0 mm 0.00 in0.0 mm 0.00 in0.0 mm
02:00 AM 76.1°F24.5°C 69.1°F20.6°C 79% 6.0 mph NE9.7 kmh NE 16.0 mph25.7 kmh 30.12 in1020.0 mb 0.00 in0.0 mm 0.00 in0.0 mm 0.00 in0.0 mm
02:05 AM 76.1°F24.5°C 69.1°F20.6°C 79% 6.0 mph ENE9.7 kmh ENE 16.0 mph25.7 kmh 30.12 in1020.0 mb 0.00 in0.0 mm 0.00 in0.0 mm 0.00 in0.0 mm
02:10 AM 76.1°F24.5°C 69.1°F20.6°C 79% 6.0 mph ENE9.7 kmh ENE 15.0 mph24.1 kmh 30.12 in1020.0 mb 0.00 in0.0 mm 0.00 in0.0 mm 0.00 in0.0 mm
02:15 AM 76.0°F24.4°C 69.0°F20.6°C 79% 6.0 mph ENE9.7 kmh ENE 14.0 mph22.5 kmh 30.12 in1020.0 mb 0.00 in0.0 mm 0.00 in0.0 mm 0.00 in0.0 mm
02:20 AM 75.9°F24.4°C 68.9°F20.5°C 79% 5.0 mph NE8.0 kmh NE 14.0 mph22.5 kmh 30.12 in1020.0 mb 0.00 in0.0 mm 0.00 in0.0 mm 0.00 in0.0 mm
02:25 AM 75.8°F24.3°C 68.8°F20.4°C 79% 5.0 mph ENE8.0 kmh ENE 14.0 mph22.5 kmh 30.12 in1020.0 mb 0.00 in0.0 mm 0.00 in0.0 mm 0.00 in0.0 mm
02:30 AM 75.7°F24.3°C 68.7°F20.4°C 79% 6.0 mph ENE9.7 kmh ENE 14.0 mph22.5 kmh 30.12 in1020.0 mb 0.00 in0.0 mm 0.00 in0.0 mm 0.00 in0.0 mm
02:35 AM 75.6°F24.2°C 68.6°F20.3°C 79% 5.0 mph ENE8.0 kmh ENE 12.0 mph19.3 kmh 30.11 in1019.6 mb 0.00 in0.0 mm 0.00 in0.0 mm 0.00 in0.0 mm
02:40 AM 75.6°F24.2°C 68.6°F20.3°C 79% 5.0 mph NE8.0 kmh NE 13.0 mph20.9 kmh 30.11 in1019.6 mb 0.00 in0.0 mm 0.00 in0.0 mm 0.00 in0.0 mm
02:45 AM 75.5°F24.2°C 68.5°F20.3°C 79% 4.0 mph NE6.4 kmh NE 13.0 mph20.9 kmh 30.11 in1019.6 mb 0.00 in0.0 mm 0.00 in0.0 mm 0.00 in0.0 mm
02:50 AM 75.4°F24.1°C 68.4°F20.2°C 79% 4.0 mph NE6.4 kmh NE 13.0 mph20.9 kmh 30.11 in1019.6 mb 0.00 in0.0 mm 0.00 in0.0 mm 0.00 in0.0 mm
02:55 AM 75.3°F24.1°C 68.3°F20.2°C 79% 5.0 mph NE8.0 kmh NE 13.0 mph20.9 kmh 30.10 in1019.3 mb 0.00 in0.0 mm 0.00 in0.0 mm 0.00 in0.0 mm
03:00 AM 75.3°F24.1°C 68.3°F20.2°C 79% 5.0 mph NE8.0 kmh NE 13.0 mph20.9 kmh 30.10 in1019.3 mb 0.00 in0.0 mm 0.00 in0.0 mm 0.00 in0.0 mm
03:05 AM 75.2°F24.0°C 68.2°F20.1°C 79% 5.0 mph NE8.0 kmh NE 11.0 mph17.7 kmh 30.10 in1019.3 mb 0.00 in0.0 mm 0.00 in0.0 mm 0.00 in0.0 mm
03:10 AM 75.1°F23.9°C 68.1°F20.1°C 79% 5.0 mph NE8.0 kmh NE 11.0 mph17.7 kmh 30.10 in1019.3 mb 0.00 in0.0 mm 0.00 in0.0 mm 0.00 in0.0 mm
03:15 AM 75.1°F23.9°C 68.1°F20.1°C 79% 5.0 mph NE8.0 kmh NE 12.0 mph19.3 kmh 30.10 in1019.3 mb 0.00 in0.0 mm 0.00 in0.0 mm 0.00 in0.0 mm
03:20 AM 75.1°F23.9°C 68.1°F20.1°C 79% 5.0 mph NE8.0 kmh NE 12.0 mph19.3 kmh 30.10 in1019.3 mb 0.00 in0.0 mm 0.00 in0.0 mm 0.00 in0.0 mm
03:25 AM 75.0°F23.9°C 68.0°F20.0°C 79% 5.0 mph NE8.0 kmh NE 11.0 mph17.7 kmh 30.10 in1019.3 mb 0.00 in0.0 mm 0.00 in0.0 mm 0.00 in0.0 mm
03:30 AM 74.8°F23.8°C 67.8°F19.9°C 79% 5.0 mph NE8.0 kmh NE 11.0 mph17.7 kmh 30.10 in1019.3 mb 0.00 in0.0 mm 0.00 in0.0 mm 0.00 in0.0 mm
03:35 AM 74.7°F23.7°C 67.8°F19.9°C 79% 4.0 mph NE6.4 kmh NE 10.0 mph16.1 kmh 30.10 in1019.3 mb 0.00 in0.0 mm 0.00 in0.0 mm 0.00 in0.0 mm
03:40 AM 74.7°F23.7°C 67.8°F19.9°C 79% 4.0 mph ENE6.4 kmh ENE 11.0 mph17.7 kmh 30.09 in1019.0 mb 0.00 in0.0 mm 0.00 in0.0 mm 0.00 in0.0 mm
03:45 AM 74.6°F23.7°C 67.7°F19.8°C 79% 5.0 mph NE8.0 kmh NE 11.0 mph17.7 kmh 30.09 in1019.0 mb 0.00 in0.0 mm 0.00 in0.0 mm 0.00 in0.0 mm
03:50 AM 74.6°F23.7°C 67.7°F19.8°C 79% 4.0 mph NE6.4 kmh NE 10.0 mph16.1 kmh 30.09 in1019.0 mb 0.00 in0.0 mm 0.00 in0.0 mm 0.00 in0.0 mm
03:55 AM 74.6°F23.7°C 67.7°F19.8°C 79% 4.0 mph NE6.4 kmh NE 10.0 mph16.1 kmh 30.09 in1019.0 mb 0.00 in0.0 mm 0.00 in0.0 mm 0.00 in0.0 mm
04:00 AM 74.4°F23.6°C 67.5°F19.7°C 79% 3.0 mph NE4.8 kmh NE 9.0 mph14.5 kmh 30.09 in1019.0 mb 0.00 in0.0 mm 0.00 in0.0 mm 0.00 in0.0 mm
04:05 AM 74.3°F23.5°C 67.4°F19.7°C 79% 3.0 mph NE4.8 kmh NE 7.0 mph11.3 kmh 30.09 in1019.0 mb 0.00 in0.0 mm 0.00 in0.0 mm 0.00 in0.0 mm
04:10 AM 74.2°F23.4°C 67.3°F19.6°C 79% 4.0 mph NE6.4 kmh NE 11.0 mph17.7 kmh 30.09 in1019.0 mb 0.00 in0.0 mm 0.00 in0.0 mm 0.00 in0.0 mm
04:15 AM 74.2°F23.4°C 67.3°F19.6°C 79% 4.0 mph NE6.4 kmh NE 14.0 mph22.5 kmh 30.09 in1019.0 mb 0.00 in0.0 mm 0.00 in0.0 mm 0.00 in0.0 mm
04:20 AM 74.1°F23.4°C 67.2°F19.6°C 79% 5.0 mph NE8.0 kmh NE 14.0 mph22.5 kmh 30.09 in1019.0 mb 0.00 in0.0 mm 0.00 in0.0 mm 0.00 in0.0 mm
04:25 AM 74.0°F23.3°C 67.1°F19.5°C 79% 4.0 mph NE6.4 kmh NE 11.0 mph17.7 kmh 30.09 in1019.0 mb 0.00 in0.0 mm 0.00 in0.0 mm 0.00 in0.0 mm
04:30 AM 74.0°F23.3°C 67.4°F19.7°C 80% 4.0 mph NE6.4 kmh NE 11.0 mph17.7 kmh 30.09 in1019.0 mb 0.00 in0.0 mm 0.00 in0.0 mm 0.00 in0.0 mm
04:35 AM 73.9°F23.3°C 67.0°F19.4°C 79% 4.0 mph NE6.4 kmh NE 13.0 mph20.9 kmh 30.09 in1019.0 mb 0.00 in0.0 mm 0.00 in0.0 mm 0.00 in0.0 mm
04:40 AM 73.9°F23.3°C 67.3°F19.6°C 80% 4.0 mph NE6.4 kmh NE 13.0 mph20.9 kmh 30.09 in1019.0 mb 0.00 in0.0 mm 0.00 in0.0 mm 0.00 in0.0 mm
04:45 AM 73.8°F23.2°C 67.2°F19.6°C 80% 4.0 mph NE6.4 kmh NE 9.0 mph14.5 kmh 30.08 in1018.6 mb 0.00 in0.0 mm 0.00 in0.0 mm 0.00 in0.0 mm
04:50 AM 73.7°F23.2°C 67.1°F19.5°C 80% 4.0 mph NE6.4 kmh NE 9.0 mph14.5 kmh 30.08 in1018.6 mb 0.00 in0.0 mm 0.00 in0.0 mm 0.00 in0.0 mm
04:55 AM 73.6°F23.1°C 67.0°F19.4°C 80% 4.0 mph NE6.4 kmh NE 8.0 mph12.9 kmh 30.08 in1018.6 mb 0.00 in0.0 mm 0.00 in0.0 mm 0.00 in0.0 mm
05:00 AM 73.5°F23.1°C 66.9°F19.4°C 80% 4.0 mph NE6.4 kmh NE 8.0 mph12.9 kmh 30.08 in1018.6 mb 0.00 in0.0 mm 0.00 in0.0 mm 0.00 in0.0 mm
05:05 AM 73.4°F23.0°C 66.9°F19.4°C 80% 4.0 mph NE6.4 kmh NE 8.0 mph12.9 kmh 30.08 in1018.6 mb 0.00 in0.0 mm 0.00 in0.0 mm 0.00 in0.0 mm
05:10 AM 73.3°F22.9°C 66.8°F19.3°C 80% 4.0 mph NE6.4 kmh NE 9.0 mph14.5 kmh 30.09 in1019.0 mb 0.00 in0.0 mm 0.00 in0.0 mm 0.00 in0.0 mm
05:15 AM 73.3°F22.9°C 66.8°F19.3°C 80% 4.0 mph NE6.4 kmh NE 9.0 mph14.5 kmh 30.08 in1018.6 mb 0.00 in0.0 mm 0.00 in0.0 mm 0.00 in0.0 mm
05:20 AM 73.2°F22.9°C 66.7°F19.3°C 80% 4.0 mph NE6.4 kmh NE 10.0 mph16.1 kmh 30.09 in1019.0 mb 0.00 in0.0 mm 0.00 in0.0 mm 0.00 in0.0 mm
05:25 AM 73.2°F22.9°C 66.7°F19.3°C 80% 3.0 mph NNE4.8 kmh NNE 10.0 mph16.1 kmh 30.08 in1018.6 mb 0.00 in0.0 mm 0.00 in0.0 mm 0.00 in0.0 mm
05:30 AM 73.1°F22.8°C 66.9°F19.4°C 81% 3.0 mph NE4.8 kmh NE 8.0 mph12.9 kmh 30.09 in1019.0 mb 0.00 in0.0 mm 0.00 in0.0 mm 0.00 in0.0 mm
05:35 AM 73.1°F22.8°C 66.9°F19.4°C 81% 4.0 mph NE6.4 kmh NE 8.0 mph12.9 kmh 30.09 in1019.0 mb 0.00 in0.0 mm 0.00 in0.0 mm 0.00 in0.0 mm
05:40 AM 73.0°F22.8°C 66.8°F19.3°C 81% 4.0 mph NE6.4 kmh NE 8.0 mph12.9 kmh 30.09 in1019.0 mb 0.00 in0.0 mm 0.00 in0.0 mm 0.00 in0.0 mm
05:45 AM 73.0°F22.8°C 66.8°F19.3°C 81% 4.0 mph NE6.4 kmh NE 12.0 mph19.3 kmh 30.08 in1018.6 mb 0.00 in0.0 mm 0.00 in0.0 mm 0.00 in0.0 mm
05:50 AM 73.0°F22.8°C 66.8°F19.3°C 81% 4.0 mph NE6.4 kmh NE 12.0 mph19.3 kmh 30.09 in1019.0 mb 0.00 in0.0 mm 0.00 in0.0 mm 0.00 in0.0 mm
05:55 AM 73.0°F22.8°C 66.8°F19.3°C 81% 4.0 mph NE6.4 kmh NE 10.0 mph16.1 kmh 30.09 in1019.0 mb 0.00 in0.0 mm 0.00 in0.0 mm 0.00 in0.0 mm
06:00 AM 73.0°F22.8°C 66.8°F19.3°C 81% 4.0 mph NE6.4 kmh NE 10.0 mph16.1 kmh 30.09 in1019.0 mb 0.00 in0.0 mm 0.00 in0.0 mm 0.00 in0.0 mm
06:05 AM 73.0°F22.8°C 66.8°F19.3°C 81% 4.0 mph NE6.4 kmh NE 9.0 mph14.5 kmh 30.09 in1019.0 mb 0.00 in0.0 mm 0.00 in0.0 mm 0.00 in0.0 mm
06:10 AM 73.0°F22.8°C 66.8°F19.3°C 81% 4.0 mph NE6.4 kmh NE 11.0 mph17.7 kmh 30.09 in1019.0 mb 0.00 in0.0 mm 0.00 in0.0 mm 0.00 in0.0 mm
06:15 AM 73.0°F22.8°C 66.8°F19.3°C 81% 4.0 mph NE6.4 kmh NE 11.0 mph17.7 kmh 30.09 in1019.0 mb 0.00 in0.0 mm 0.00 in0.0 mm 0.00 in0.0 mm
06:20 AM 72.9°F22.7°C 66.7°F19.3°C 81% 4.0 mph NE6.4 kmh NE 9.0 mph14.5 kmh 30.09 in1019.0 mb 0.00 in0.0 mm 0.00 in0.0 mm 0.00 in0.0 mm
06:25 AM 72.9°F22.7°C 66.7°F19.3°C 81% 4.0 mph NE6.4 kmh NE 8.0 mph12.9 kmh 30.09 in1019.0 mb 0.00 in0.0 mm 0.00 in0.0 mm 0.00 in0.0 mm
06:30 AM 72.8°F22.7°C 66.6°F19.2°C 81% 4.0 mph NE6.4 kmh NE 8.0 mph12.9 kmh 30.09 in1019.0 mb 0.00 in0.0 mm 0.00 in0.0 mm 0.00 in0.0 mm
06:35 AM 72.8°F22.7°C 66.6°F19.2°C 81% 4.0 mph NE6.4 kmh NE 9.0 mph14.5 kmh 30.09 in1019.0 mb 0.00 in0.0 mm 0.00 in0.0 mm 0.00 in0.0 mm
06:40 AM 72.9°F22.7°C 66.7°F19.3°C 81% 4.0 mph NE6.4 kmh NE 9.0 mph14.5 kmh 30.09 in1019.0 mb 0.00 in0.0 mm 0.00 in0.0 mm 0.00 in0.0 mm
06:45 AM 72.9°F22.7°C 66.7°F19.3°C 81% 4.0 mph NE6.4 kmh NE 9.0 mph14.5 kmh 30.10 in1019.3 mb 0.00 in0.0 mm 0.00 in0.0 mm 0.00 in0.0 mm
06:50 AM 72.9°F22.7°C 66.7°F19.3°C 81% 4.0 mph NE6.4 kmh NE 8.0 mph12.9 kmh 30.10 in1019.3 mb 0.00 in0.0 mm 0.00 in0.0 mm 0.00 in0.0 mm
06:55 AM 72.9°F22.7°C 66.7°F19.3°C 81% 4.0 mph NE6.4 kmh NE 11.0 mph17.7 kmh 30.10 in1019.3 mb 0.00 in0.0 mm 0.00 in0.0 mm 0.00 in0.0 mm
07:00 AM 73.0°F22.8°C 66.8°F19.3°C 81% 4.0 mph NE6.4 kmh NE 11.0 mph17.7 kmh 30.10 in1019.3 mb 0.00 in0.0 mm 0.00 in0.0 mm 0.00 in0.0 mm
07:05 AM 73.0°F22.8°C 66.8°F19.3°C 81% 4.0 mph NE6.4 kmh NE 11.0 mph17.7 kmh 30.10 in1019.3 mb 0.00 in0.0 mm 0.00 in0.0 mm 0.00 in0.0 mm
07:10 AM 73.0°F22.8°C 66.8°F19.3°C 81% 4.0 mph NE6.4 kmh NE 11.0 mph17.7 kmh 30.10 in1019.3 mb 0.00 in0.0 mm 0.00 in0.0 mm 0.00 in0.0 mm
07:15 AM 73.0°F22.8°C 66.8°F19.3°C 81% 4.0 mph NE6.4 kmh NE 10.0 mph16.1 kmh 30.10 in1019.3 mb 0.00 in0.0 mm 0.00 in0.0 mm 0.00 in0.0 mm
07:20 AM 73.0°F22.8°C 66.8°F19.3°C 81% 5.0 mph NE8.0 kmh NE 10.0 mph16.1 kmh 30.10 in1019.3 mb 0.00 in0.0 mm 0.00 in0.0 mm 0.00 in0.0 mm
07:25 AM 73.0°F22.8°C 66.8°F19.3°C 81% 5.0 mph NE8.0 kmh NE 10.0 mph16.1 kmh 30.10 in1019.3 mb 0.00 in0.0 mm 0.00 in0.0 mm 0.00 in0.0 mm
07:30 AM 73.0°F22.8°C 66.8°F19.3°C 81% 4.0 mph NE6.4 kmh NE 9.0 mph14.5 kmh 30.11 in1019.6 mb 0.00 in0.0 mm 0.00 in0.0 mm 0.00 in0.0 mm
07:35 AM 73.0°F22.8°C 66.8°F19.3°C 81% 4.0 mph NE6.4 kmh NE 11.0 mph17.7 kmh 30.10 in1019.3 mb 0.00 in0.0 mm 0.00 in0.0 mm 0.00 in0.0 mm
07:40 AM 73.0°F22.8°C 66.8°F19.3°C 81% 4.0 mph NE6.4 kmh NE 11.0 mph17.7 kmh 30.11 in1019.6 mb 0.00 in0.0 mm 0.00 in0.0 mm 0.00 in0.0 mm
07:45 AM 73.1°F22.8°C 66.9°F19.4°C 81% 5.0 mph NE8.0 kmh NE 13.0 mph20.9 kmh 30.11 in1019.6 mb 0.00 in0.0 mm 0.00 in0.0 mm 0.00 in0.0 mm
07:50 AM 73.1°F22.8°C 66.9°F19.4°C 81% 5.0 mph NE8.0 kmh NE 13.0 mph20.9 kmh 30.11 in1019.6 mb 0.00 in0.0 mm 0.00 in0.0 mm 0.00 in0.0 mm
07:55 AM 73.2°F22.9°C 67.0°F19.4°C 81% 4.0 mph NE6.4 kmh NE 9.0 mph14.5 kmh 30.11 in1019.6 mb 0.00 in0.0 mm 0.00 in0.0 mm 0.00 in0.0 mm
08:00 AM 73.3°F22.9°C 67.1°F19.5°C 81% 5.0 mph NE8.0 kmh NE 9.0 mph14.5 kmh 30.11 in1019.6 mb 0.00 in0.0 mm 0.00 in0.0 mm 0.00 in0.0 mm
08:05 AM 73.4°F23.0°C 67.2°F19.6°C 81% 5.0 mph NE8.0 kmh NE 9.0 mph14.5 kmh 30.11 in1019.6 mb 0.00 in0.0 mm 0.00 in0.0 mm 0.00 in0.0 mm
08:10 AM 73.6°F23.1°C 67.4°F19.7°C 81% 5.0 mph NE8.0 kmh NE 11.0 mph17.7 kmh 30.11 in1019.6 mb 0.00 in0.0 mm 0.00 in0.0 mm 0.00 in0.0 mm
08:15 AM 73.7°F23.2°C 67.5°F19.7°C 81% 6.0 mph NE9.7 kmh NE 12.0 mph19.3 kmh 30.11 in1019.6 mb 0.00 in0.0 mm 0.00 in0.0 mm 0.00 in0.0 mm
08:20 AM 74.0°F23.3°C 67.8°F19.9°C 81% 6.0 mph NE9.7 kmh NE 12.0 mph19.3 kmh 30.11 in1019.6 mb 0.00 in0.0 mm 0.00 in0.0 mm 0.00 in0.0 mm
08:25 AM 74.2°F23.4°C 68.0°F20.0°C 81% 5.0 mph NE8.0 kmh NE 10.0 mph16.1 kmh 30.11 in1019.6 mb 0.00 in0.0 mm 0.00 in0.0 mm 0.00 in0.0 mm
08:30 AM 74.6°F23.7°C 68.4°F20.2°C 81% 5.0 mph NE8.0 kmh NE 12.0 mph19.3 kmh 30.11 in1019.6 mb 0.00 in0.0 mm 0.00 in0.0 mm 0.00 in0.0 mm
08:35 AM 75.0°F23.9°C 68.4°F20.2°C 80% 6.0 mph NE9.7 kmh NE 13.0 mph20.9 kmh 30.11 in1019.6 mb 0.00 in0.0 mm 0.00 in0.0 mm 0.00 in0.0 mm
08:40 AM 75.5°F24.2°C 68.9°F20.5°C 80% 6.0 mph NE9.7 kmh NE 13.0 mph20.9 kmh 30.11 in1019.6 mb 0.00 in0.0 mm 0.00 in0.0 mm 0.00 in0.0 mm
08:45 AM 75.8°F24.3°C 68.8°F20.4°C 79% 6.0 mph NE9.7 kmh NE 15.0 mph24.1 kmh 30.11 in1019.6 mb 0.00 in0.0 mm 0.00 in0.0 mm 0.00 in0.0 mm
08:50 AM 76.2°F24.6°C 69.2°F20.7°C 79% 6.0 mph NE9.7 kmh NE 15.0 mph24.1 kmh 30.11 in1019.6 mb 0.00 in0.0 mm 0.00 in0.0 mm 0.00 in0.0 mm
08:55 AM 76.6°F24.8°C 69.2°F20.7°C 78% 6.0 mph NE9.7 kmh NE 13.0 mph20.9 kmh 30.11 in1019.6 mb 0.00 in0.0 mm 0.00 in0.0 mm 0.00 in0.0 mm
09:00 AM 77.0°F25.0°C 69.6°F20.9°C 78% 6.0 mph NE9.7 kmh NE 14.0 mph22.5 kmh 30.11 in1019.6 mb 0.00 in0.0 mm 0.00 in0.0 mm 0.00 in0.0 mm
09:05 AM 77.4°F25.2°C 70.0°F21.1°C 78% 7.0 mph NE11.3 kmh NE 14.0 mph22.5 kmh 30.11 in1019.6 mb 0.00 in0.0 mm 0.00 in0.0 mm 0.00 in0.0 mm
09:10 AM 77.9°F25.5°C 70.1°F21.2°C 77% 6.0 mph NE9.7 kmh NE 14.0 mph22.5 kmh 30.11 in1019.6 mb 0.00 in0.0 mm 0.00 in0.0 mm 0.00 in0.0 mm
09:15 AM 78.2°F25.7°C 70.0°F21.1°C 76% 6.0 mph NE9.7 kmh NE 12.0 mph19.3 kmh 30.11 in1019.6 mb 0.00 in0.0 mm 0.00 in0.0 mm 0.00 in0.0 mm
09:20 AM 78.6°F25.9°C 70.4°F21.3°C 76% 6.0 mph NE9.7 kmh NE 15.0 mph24.1 kmh 30.11 in1019.6 mb 0.00 in0.0 mm 0.00 in0.0 mm 0.00 in0.0 mm
09:25 AM 78.7°F25.9°C 70.1°F21.2°C 75% 7.0 mph NE11.3 kmh NE 15.0 mph24.1 kmh 30.11 in1019.6 mb 0.00 in0.0 mm 0.00 in0.0 mm 0.00 in0.0 mm
09:30 AM 78.6°F25.9°C 70.0°F21.1°C 75% 8.0 mph NE12.9 kmh NE 15.0 mph24.1 kmh 30.11 in1019.6 mb 0.00 in0.0 mm 0.00 in0.0 mm 0.00 in0.0 mm
09:35 AM 78.6°F25.9°C 70.4°F21.3°C 76% 7.0 mph NE11.3 kmh NE 15.0 mph24.1 kmh 30.11 in1019.6 mb 0.00 in0.0 mm 0.00 in0.0 mm 0.00 in0.0 mm
09:40 AM 78.7°F25.9°C 70.1°F21.2°C 75% 6.0 mph NE9.7 kmh NE 13.0 mph20.9 kmh 30.11 in1019.6 mb 0.00 in0.0 mm 0.00 in0.0 mm 0.00 in0.0 mm
09:45 AM 79.2°F26.2°C 70.6°F21.4°C 75% 7.0 mph NE11.3 kmh NE 14.0 mph22.5 kmh 30.11 in1019.6 mb 0.00 in0.0 mm 0.00 in0.0 mm 0.00 in0.0 mm
09:50 AM 79.9°F26.6°C 71.7°F22.1°C 76% 7.0 mph NE11.3 kmh NE 14.0 mph22.5 kmh 30.11 in1019.6 mb 0.00 in0.0 mm 0.00 in0.0 mm 0.00 in0.0 mm
09:55 AM 80.4°F26.9°C 70.9°F21.6°C 73% 8.0 mph NE12.9 kmh NE 17.0 mph27.4 kmh 30.11 in1019.6 mb 0.00 in0.0 mm 0.00 in0.0 mm 0.00 in0.0 mm
10:00 AM 80.7°F27.1°C 71.6°F22.0°C 74% 9.0 mph NE14.5 kmh NE 17.0 mph27.4 kmh 30.11 in1019.6 mb 0.00 in0.0 mm 0.00 in0.0 mm 0.00 in0.0 mm
10:05 AM 81.2°F27.3°C 71.7°F22.1°C 73% 7.0 mph NE11.3 kmh NE 16.0 mph25.7 kmh 30.11 in1019.6 mb 0.00 in0.0 mm 0.00 in0.0 mm 0.00 in0.0 mm
10:10 AM 81.6°F27.6°C 71.7°F22.1°C 72% 7.0 mph NE11.3 kmh NE 18.0 mph29.0 kmh 30.11 in1019.6 mb 0.00 in0.0 mm 0.00 in0.0 mm 0.00 in0.0 mm
10:15 AM 81.6°F27.6°C 71.3°F21.8°C 71% 8.0 mph ENE12.9 kmh ENE 23.0 mph37.0 kmh 30.11 in1019.6 mb 0.00 in0.0 mm 0.00 in0.0 mm 0.00 in0.0 mm
10:20 AM 81.6°F27.6°C 71.7°F22.1°C 72% 9.0 mph NE14.5 kmh NE 23.0 mph37.0 kmh 30.11 in1019.6 mb 0.00 in0.0 mm 0.00 in0.0 mm 0.00 in0.0 mm
10:25 AM 81.8°F27.7°C 71.5°F21.9°C 71% 8.0 mph NE12.9 kmh NE 19.0 mph30.6 kmh 30.12 in1020.0 mb 0.00 in0.0 mm 0.00 in0.0 mm 0.00 in0.0 mm
10:30 AM 82.1°F27.8°C 71.8°F22.1°C 71% 8.0 mph NE12.9 kmh NE 19.0 mph30.6 kmh 30.12 in1020.0 mb 0.00 in0.0 mm 0.00 in0.0 mm 0.00 in0.0 mm
10:35 AM 82.3°F27.9°C 72.0°F22.2°C 71% 8.0 mph NE12.9 kmh NE 17.0 mph27.4 kmh 30.11 in1019.6 mb 0.00 in0.0 mm 0.00 in0.0 mm 0.00 in0.0 mm
10:40 AM 82.4°F28.0°C 71.6°F22.0°C 70% 8.0 mph NE12.9 kmh NE 20.0 mph32.2 kmh 30.11 in1019.6 mb 0.00 in0.0 mm 0.00 in0.0 mm 0.00 in0.0 mm
10:45 AM 82.6°F28.1°C 72.2°F22.3°C 71% 8.0 mph NE12.9 kmh NE 20.0 mph32.2 kmh 30.11 in1019.6 mb 0.00 in0.0 mm 0.00 in0.0 mm 0.00 in0.0 mm
10:50 AM 82.5°F28.1°C 71.3°F21.8°C 69% 9.0 mph NE14.5 kmh NE 19.0 mph30.6 kmh 30.11 in1019.6 mb 0.00 in0.0 mm 0.00 in0.0 mm 0.00 in0.0 mm
10:55 AM 82.0°F27.8°C 71.2°F21.8°C 70% 9.0 mph NE14.5 kmh NE 21.0 mph33.8 kmh 30.11 in1019.6 mb 0.00 in0.0 mm 0.00 in0.0 mm 0.00 in0.0 mm
11:00 AM 82.0°F27.8°C 71.7°F22.1°C 71% 9.0 mph ENE14.5 kmh ENE 21.0 mph33.8 kmh 30.11 in1019.6 mb 0.00 in0.0 mm 0.00 in0.0 mm 0.00 in0.0 mm
11:05 AM 82.4°F28.0°C 72.0°F22.2°C 71% 7.0 mph ENE11.3 kmh ENE 17.0 mph27.4 kmh 30.11 in1019.6 mb 0.00 in0.0 mm 0.00 in0.0 mm 0.00 in0.0 mm
11:10 AM 82.5°F28.1°C 71.7°F22.1°C 70% 8.0 mph NE12.9 kmh NE 21.0 mph33.8 kmh 30.11 in1019.6 mb 0.00 in0.0 mm 0.00 in0.0 mm 0.00 in0.0 mm
11:15 AM 82.3°F27.9°C 72.0°F22.2°C 71% 9.0 mph NE14.5 kmh NE 22.0 mph35.4 kmh 30.11 in1019.6 mb 0.00 in0.0 mm 0.00 in0.0 mm 0.00 in0.0 mm
11:20 AM 82.2°F27.9°C 71.9°F22.2°C 71% 10.0 mph NE16.1 kmh NE 24.0 mph38.6 kmh 30.11 in1019.6 mb 0.00 in0.0 mm 0.00 in0.0 mm 0.00 in0.0 mm
11:25 AM 82.1°F27.8°C 71.8°F22.1°C 71% 10.0 mph NE16.1 kmh NE 24.0 mph38.6 kmh 30.11 in1019.6 mb 0.00 in0.0 mm 0.00 in0.0 mm 0.00 in0.0 mm
11:30 AM 82.4°F28.0°C 72.5°F22.5°C 72% 9.0 mph NE14.5 kmh NE 21.0 mph33.8 kmh 30.11 in1019.6 mb 0.00 in0.0 mm 0.00 in0.0 mm 0.00 in0.0 mm
11:35 AM 82.8°F28.2°C 72.8°F22.7°C 72% 8.0 mph NE12.9 kmh NE 19.0 mph30.6 kmh 30.11 in1019.6 mb 0.00 in0.0 mm 0.00 in0.0 mm 0.00 in0.0 mm
11:40 AM 83.7°F28.7°C 73.7°F23.2°C 72% 8.0 mph ENE12.9 kmh ENE 19.0 mph30.6 kmh 30.11 in1019.6 mb 0.00 in0.0 mm 0.00 in0.0 mm 0.00 in0.0 mm
11:45 AM 84.8°F29.3°C 73.9°F23.3°C 70% 7.0 mph ENE11.3 kmh ENE 15.0 mph24.1 kmh 30.11 in1019.6 mb 0.00 in0.0 mm 0.00 in0.0 mm 0.00 in0.0 mm
11:50 AM 85.6°F29.8°C 74.7°F23.7°C 70% 7.0 mph ENE11.3 kmh ENE 15.0 mph24.1 kmh 30.11 in1019.6 mb 0.00 in0.0 mm 0.00 in0.0 mm 0.00 in0.0 mm
11:55 AM 85.5°F29.7°C 73.3°F22.9°C 67% 8.0 mph ENE12.9 kmh ENE 22.0 mph35.4 kmh 30.11 in1019.6 mb 0.00 in0.0 mm 0.00 in0.0 mm 0.00 in0.0 mm
12:00 PM 84.5°F29.2°C 73.2°F22.9°C 69% 9.0 mph ENE14.5 kmh ENE 22.0 mph35.4 kmh 30.11 in1019.6 mb 0.00 in0.0 mm 0.00 in0.0 mm 0.00 in0.0 mm
12:05 PM 83.7°F28.7°C 73.3°F22.9°C 71% 8.0 mph ENE12.9 kmh ENE 21.0 mph33.8 kmh 30.11 in1019.6 mb 0.00 in0.0 mm 0.00 in0.0 mm 0.00 in0.0 mm
12:10 PM 83.2°F28.4°C 73.2°F22.9°C 72% 7.0 mph E11.3 kmh E 21.0 mph33.8 kmh 30.11 in1019.6 mb 0.00 in0.0 mm 0.00 in0.0 mm 0.00 in0.0 mm
12:15 PM 82.0°F27.8°C 73.7°F23.2°C 76% 8.0 mph ESE12.9 kmh ESE 21.0 mph33.8 kmh 30.11 in1019.6 mb 0.01 in0.3 mm 0.12 in3.0 mm 0.01 in0.3 mm
12:20 PM 80.8°F27.1°C 74.4°F23.6°C 81% 7.0 mph E11.3 kmh E 17.0 mph27.4 kmh 30.11 in1019.6 mb 0.03 in0.8 mm 0.24 in6.1 mm 0.03 in0.8 mm
12:25 PM 80.1°F26.7°C 74.5°F23.6°C 83% 4.0 mph ENE6.4 kmh ENE 11.0 mph17.7 kmh 30.11 in1019.6 mb 0.03 in0.8 mm 0.00 in0.0 mm 0.03 in0.8 mm
12:30 PM 79.8°F26.6°C 74.9°F23.8°C 85% 4.0 mph ENE6.4 kmh ENE 10.0 mph16.1 kmh 30.10 in1019.3 mb 0.03 in0.8 mm 0.00 in0.0 mm 0.03 in0.8 mm
12:35 PM 80.0°F26.7°C 74.7°F23.7°C 84% 5.0 mph NE8.0 kmh NE 13.0 mph20.9 kmh 30.10 in1019.3 mb 0.03 in0.8 mm 0.00 in0.0 mm 0.03 in0.8 mm
12:40 PM 80.2°F26.8°C 74.9°F23.8°C 84% 7.0 mph NE11.3 kmh NE 16.0 mph25.7 kmh 30.09 in1019.0 mb 0.03 in0.8 mm 0.00 in0.0 mm 0.03 in0.8 mm
12:45 PM 80.6°F27.0°C 75.0°F23.9°C 83% 7.0 mph NE11.3 kmh NE 16.0 mph25.7 kmh 30.09 in1019.0 mb 0.03 in0.8 mm 0.00 in0.0 mm 0.03 in0.8 mm
12:50 PM 81.0°F27.2°C 75.0°F23.9°C 82% 6.0 mph NE9.7 kmh NE 15.0 mph24.1 kmh 30.09 in1019.0 mb 0.03 in0.8 mm 0.00 in0.0 mm 0.03 in0.8 mm
12:55 PM 81.6°F27.6°C 75.2°F24.0°C 81% 7.0 mph ENE11.3 kmh ENE 15.0 mph24.1 kmh 30.08 in1018.6 mb 0.03 in0.8 mm 0.00 in0.0 mm 0.03 in0.8 mm
01:00 PM 82.3°F27.9°C 74.4°F23.6°C 77% 8.0 mph ENE12.9 kmh ENE 23.0 mph37.0 kmh 30.08 in1018.6 mb 0.03 in0.8 mm 0.00 in0.0 mm 0.03 in0.8 mm
01:05 PM 82.9°F28.3°C 74.2°F23.4°C 75% 10.0 mph NE16.1 kmh NE 23.0 mph37.0 kmh 30.08 in1018.6 mb 0.03 in0.8 mm 0.00 in0.0 mm 0.03 in0.8 mm
01:10 PM 83.4°F28.6°C 74.2°F23.4°C 74% 9.0 mph NE14.5 kmh NE 20.0 mph32.2 kmh 30.08 in1018.6 mb 0.03 in0.8 mm 0.00 in0.0 mm 0.03 in0.8 mm
01:15 PM 83.4°F28.6°C 74.2°F23.4°C 74% 8.0 mph NE12.9 kmh NE 16.0 mph25.7 kmh 30.08 in1018.6 mb 0.01 in0.3 mm 0.00 in0.0 mm 0.03 in0.8 mm
01:20 PM 83.3°F28.5°C 74.5°F23.6°C 75% 7.0 mph NE11.3 kmh NE 14.0 mph22.5 kmh 30.08 in1018.6 mb 0.00 in0.0 mm 0.00 in0.0 mm 0.03 in0.8 mm
01:25 PM 84.1°F28.9°C 74.5°F23.6°C 73% 7.0 mph ENE11.3 kmh ENE 17.0 mph27.4 kmh 30.07 in1018.3 mb 0.00 in0.0 mm 0.00 in0.0 mm 0.03 in0.8 mm
01:30 PM 84.7°F29.3°C 73.8°F23.2°C 70% 8.0 mph ENE12.9 kmh ENE 18.0 mph29.0 kmh 30.07 in1018.3 mb 0.00 in0.0 mm 0.00 in0.0 mm 0.03 in0.8 mm
01:35 PM 85.1°F29.5°C 74.2°F23.4°C 70% 8.0 mph NE12.9 kmh NE 18.0 mph29.0 kmh 30.07 in1018.3 mb 0.00 in0.0 mm 0.00 in0.0 mm 0.03 in0.8 mm
01:40 PM 85.5°F29.7°C 73.3°F22.9°C 67% 9.0 mph NE14.5 kmh NE 19.0 mph30.6 kmh 30.07 in1018.3 mb 0.00 in0.0 mm 0.00 in0.0 mm 0.03 in0.8 mm
01:45 PM 84.4°F29.1°C 72.7°F22.6°C 68% 10.0 mph NE16.1 kmh NE 22.0 mph35.4 kmh 30.07 in1018.3 mb 0.00 in0.0 mm 0.00 in0.0 mm 0.03 in0.8 mm
01:50 PM 83.3°F28.5°C 72.5°F22.5°C 70% 10.0 mph NE16.1 kmh NE 23.0 mph37.0 kmh 30.07 in1018.3 mb 0.00 in0.0 mm 0.00 in0.0 mm 0.03 in0.8 mm
01:55 PM 82.5°F28.1°C 72.6°F22.6°C 72% 10.0 mph NE16.1 kmh NE 23.0 mph37.0 kmh 30.07 in1018.3 mb 0.00 in0.0 mm 0.00 in0.0 mm 0.03 in0.8 mm
02:00 PM 82.1°F27.8°C 72.6°F22.6°C 73% 10.0 mph NE16.1 kmh NE 21.0 mph33.8 kmh 30.07 in1018.3 mb 0.00 in0.0 mm 0.00 in0.0 mm 0.03 in0.8 mm
02:05 PM 82.4°F28.0°C 72.9°F22.7°C 73% 10.0 mph NE16.1 kmh NE 19.0 mph30.6 kmh 30.07 in1018.3 mb 0.00 in0.0 mm 0.00 in0.0 mm 0.03 in0.8 mm
02:10 PM 82.8°F28.2°C 73.3°F22.9°C 73% 9.0 mph ENE14.5 kmh ENE 23.0 mph37.0 kmh 30.07 in1018.3 mb 0.00 in0.0 mm 0.00 in0.0 mm 0.03 in0.8 mm
02:15 PM 81.9°F27.7°C 73.2°F22.9°C 75% 9.0 mph NE14.5 kmh NE 23.0 mph37.0 kmh 30.07 in1018.3 mb 0.00 in0.0 mm 0.00 in0.0 mm 0.03 in0.8 mm
02:20 PM 80.9°F27.2°C 73.0°F22.8°C 77% 9.0 mph NE14.5 kmh NE 21.0 mph33.8 kmh 30.07 in1018.3 mb 0.00 in0.0 mm 0.00 in0.0 mm 0.03 in0.8 mm
02:25 PM 80.7°F27.1°C 72.8°F22.7°C 77% 9.0 mph NE14.5 kmh NE 21.0 mph33.8 kmh 30.07 in1018.3 mb 0.00 in0.0 mm 0.00 in0.0 mm 0.03 in0.8 mm
02:30 PM 80.5°F26.9°C 71.8°F22.1°C 75% 10.0 mph NE16.1 kmh NE 23.0 mph37.0 kmh 30.07 in1018.3 mb 0.00 in0.0 mm 0.00 in0.0 mm 0.03 in0.8 mm
02:35 PM 80.5°F26.9°C 72.2°F22.3°C 76% 11.0 mph NE17.7 kmh NE 23.0 mph37.0 kmh 30.07 in1018.3 mb 0.00 in0.0 mm 0.00 in0.0 mm 0.03 in0.8 mm
02:40 PM 80.8°F27.1°C 72.5°F22.5°C 76% 9.0 mph NE14.5 kmh NE 21.0 mph33.8 kmh 30.07 in1018.3 mb 0.00 in0.0 mm 0.00 in0.0 mm 0.03 in0.8 mm
02:45 PM 80.9°F27.2°C 72.2°F22.3°C 75% 8.0 mph NE12.9 kmh NE 20.0 mph32.2 kmh 30.07 in1018.3 mb 0.00 in0.0 mm 0.00 in0.0 mm 0.03 in0.8 mm
02:50 PM 80.4°F26.9°C 71.7°F22.1°C 75% 10.0 mph NE16.1 kmh NE 25.0 mph40.2 kmh 30.07 in1018.3 mb 0.00 in0.0 mm 0.00 in0.0 mm 0.03 in0.8 mm
02:55 PM 79.9°F26.6°C 72.0°F22.2°C 77% 12.0 mph NE19.3 kmh NE 25.0 mph40.2 kmh 30.07 in1018.3 mb 0.00 in0.0 mm 0.00 in0.0 mm 0.03 in0.8 mm
03:00 PM 79.7°F26.5°C 71.8°F22.1°C 77% 11.0 mph NE17.7 kmh NE 23.0 mph37.0 kmh 30.07 in1018.3 mb 0.00 in0.0 mm 0.00 in0.0 mm 0.03 in0.8 mm
03:05 PM 79.5°F26.4°C 72.0°F22.2°C 78% 10.0 mph NE16.1 kmh NE 23.0 mph37.0 kmh 30.07 in1018.3 mb 0.00 in0.0 mm 0.00 in0.0 mm 0.03 in0.8 mm
03:10 PM 79.4°F26.3°C 72.7°F22.6°C 80% 8.0 mph NE12.9 kmh NE 20.0 mph32.2 kmh 30.07 in1018.3 mb 0.00 in0.0 mm 0.00 in0.0 mm 0.03 in0.8 mm
03:15 PM 79.1°F26.2°C 72.8°F22.7°C 81% 8.0 mph NE12.9 kmh NE 20.0 mph32.2 kmh 30.06 in1017.9 mb 0.00 in0.0 mm 0.00 in0.0 mm 0.03 in0.8 mm
03:20 PM 79.6°F26.4°C 73.3°F22.9°C 81% 9.0 mph NE14.5 kmh NE 19.0 mph30.6 kmh 30.06 in1017.9 mb 0.00 in0.0 mm 0.00 in0.0 mm 0.03 in0.8 mm
03:25 PM 80.5°F26.9°C 73.8°F23.2°C 80% 8.0 mph NE12.9 kmh NE 17.0 mph27.4 kmh 30.06 in1017.9 mb 0.00 in0.0 mm 0.00 in0.0 mm 0.03 in0.8 mm
03:30 PM 80.1°F26.7°C 73.0°F22.8°C 79% 9.0 mph NE14.5 kmh NE 17.0 mph27.4 kmh 30.06 in1017.9 mb 0.00 in0.0 mm 0.00 in0.0 mm 0.03 in0.8 mm
03:35 PM 79.5°F26.4°C 72.8°F22.7°C 80% 9.0 mph NE14.5 kmh NE 17.0 mph27.4 kmh 30.06 in1017.9 mb 0.00 in0.0 mm 0.00 in0.0 mm 0.03 in0.8 mm
03:40 PM 79.9°F26.6°C 73.2°F22.9°C 80% 8.0 mph NE12.9 kmh NE 15.0 mph24.1 kmh 30.06 in1017.9 mb 0.00 in0.0 mm 0.00 in0.0 mm 0.03 in0.8 mm
03:45 PM 80.0°F26.7°C 72.9°F22.7°C 79% 8.0 mph NE12.9 kmh NE 23.0 mph37.0 kmh 30.05 in1017.6 mb 0.00 in0.0 mm 0.00 in0.0 mm 0.03 in0.8 mm
03:50 PM 80.2°F26.8°C 72.7°F22.6°C 78% 8.0 mph NE12.9 kmh NE 23.0 mph37.0 kmh 30.05 in1017.6 mb 0.00 in0.0 mm 0.00 in0.0 mm 0.03 in0.8 mm
03:55 PM 80.0°F26.7°C 72.5°F22.5°C 78% 8.0 mph NE12.9 kmh NE 17.0 mph27.4 kmh 30.06 in1017.9 mb 0.00 in0.0 mm 0.00 in0.0 mm 0.03 in0.8 mm
04:00 PM 79.8°F26.6°C 72.3°F22.4°C 78% 7.0 mph NE11.3 kmh NE 18.0 mph29.0 kmh 30.05 in1017.6 mb 0.00 in0.0 mm 0.00 in0.0 mm 0.03 in0.8 mm
04:05 PM 79.6°F26.4°C 72.5°F22.5°C 79% 6.0 mph NE9.7 kmh NE 18.0 mph29.0 kmh 30.05 in1017.6 mb 0.00 in0.0 mm 0.00 in0.0 mm 0.03 in0.8 mm
04:10 PM 79.4°F26.3°C 72.7°F22.6°C 80% 6.0 mph NE9.7 kmh NE 12.0 mph19.3 kmh 30.06 in1017.9 mb 0.00 in0.0 mm 0.00 in0.0 mm 0.03 in0.8 mm
04:15 PM 78.5°F25.8°C 72.5°F22.5°C 82% 8.0 mph ENE12.9 kmh ENE 17.0 mph27.4 kmh 30.06 in1017.9 mb 0.01 in0.3 mm 0.12 in3.0 mm 0.04 in1.0 mm
04:20 PM 77.5°F25.3°C 72.3°F22.4°C 84% 8.0 mph ENE12.9 kmh ENE 17.0 mph27.4 kmh 30.06 in1017.9 mb 0.01 in0.3 mm 0.00 in0.0 mm 0.04 in1.0 mm
04:25 PM 76.8°F24.9°C 71.9°F22.2°C 85% 6.0 mph E9.7 kmh E 13.0 mph20.9 kmh 30.05 in1017.6 mb 0.01 in0.3 mm 0.00 in0.0 mm 0.04 in1.0 mm
04:30 PM 76.5°F24.7°C 72.0°F22.2°C 86% 5.0 mph ENE8.0 kmh ENE 11.0 mph17.7 kmh 30.05 in1017.6 mb 0.01 in0.3 mm 0.00 in0.0 mm 0.04 in1.0 mm
04:35 PM 76.6°F24.8°C 72.4°F22.4°C 87% 4.0 mph NE6.4 kmh NE 11.0 mph17.7 kmh 30.05 in1017.6 mb 0.01 in0.3 mm 0.00 in0.0 mm 0.04 in1.0 mm
04:40 PM 76.9°F24.9°C 72.7°F22.6°C 87% 4.0 mph ENE6.4 kmh ENE 8.0 mph12.9 kmh 30.05 in1017.6 mb 0.01 in0.3 mm 0.00 in0.0 mm 0.04 in1.0 mm
04:45 PM 77.1°F25.1°C 72.9°F22.7°C 87% 4.0 mph NE6.4 kmh NE 11.0 mph17.7 kmh 30.05 in1017.6 mb 0.01 in0.3 mm 0.00 in0.0 mm 0.04 in1.0 mm
04:50 PM 77.1°F25.1°C 72.6°F22.6°C 86% 5.0 mph NE8.0 kmh NE 11.0 mph17.7 kmh 30.05 in1017.6 mb 0.01 in0.3 mm 0.00 in0.0 mm 0.04 in1.0 mm
04:55 PM 77.1°F25.1°C 72.6°F22.6°C 86% 4.0 mph NE6.4 kmh NE 10.0 mph16.1 kmh 30.04 in1017.3 mb 0.01 in0.3 mm 0.00 in0.0 mm 0.04 in1.0 mm
05:00 PM 77.1°F25.1°C 72.6°F22.6°C 86% 5.0 mph NE8.0 kmh NE 11.0 mph17.7 kmh 30.04 in1017.3 mb 0.01 in0.3 mm 0.00 in0.0 mm 0.04 in1.0 mm
05:05 PM 76.9°F24.9°C 72.4°F22.4°C 86% 5.0 mph NE8.0 kmh NE 11.0 mph17.7 kmh 30.05 in1017.6 mb 0.01 in0.3 mm 0.00 in0.0 mm 0.04 in1.0 mm
05:10 PM 76.9°F24.9°C 72.4°F22.4°C 86% 5.0 mph NE8.0 kmh NE 10.0 mph16.1 kmh 30.04 in1017.3 mb 0.01 in0.3 mm 0.00 in0.0 mm 0.04 in1.0 mm
05:15 PM 76.9°F24.9°C 72.4°F22.4°C 86% 4.0 mph ENE6.4 kmh ENE 9.0 mph14.5 kmh 30.04 in1017.3 mb 0.00 in0.0 mm 0.00 in0.0 mm 0.04 in1.0 mm
05:20 PM 76.9°F24.9°C 72.7°F22.6°C 87% 3.0 mph ENE4.8 kmh ENE 9.0 mph14.5 kmh 30.04 in1017.3 mb 0.02 in0.5 mm 0.24 in6.1 mm 0.06 in1.5 mm
05:25 PM 76.7°F24.8°C 72.5°F22.5°C 87% 3.0 mph E4.8 kmh E 8.0 mph12.9 kmh 30.03 in1016.9 mb 0.06 in1.5 mm 0.48 in12.2 mm 0.10 in2.5 mm
05:30 PM 76.3°F24.6°C 72.1°F22.3°C 87% 3.0 mph E4.8 kmh E 8.0 mph12.9 kmh 30.04 in1017.3 mb 0.08 in2.0 mm 0.24 in6.1 mm 0.12 in3.0 mm
05:35 PM 76.0°F24.4°C 71.8°F22.1°C 87% 3.0 mph ENE4.8 kmh ENE 7.0 mph11.3 kmh 30.04 in1017.3 mb 0.08 in2.0 mm 0.00 in0.0 mm 0.12 in3.0 mm
05:40 PM 75.8°F24.3°C 71.7°F22.1°C 87% 3.0 mph NE4.8 kmh NE 7.0 mph11.3 kmh 30.03 in1016.9 mb 0.08 in2.0 mm 0.00 in0.0 mm 0.12 in3.0 mm
05:45 PM 76.0°F24.4°C 71.8°F22.1°C 87% 2.0 mph E3.2 kmh E 6.0 mph9.7 kmh 30.03 in1016.9 mb 0.08 in2.0 mm 0.00 in0.0 mm 0.12 in3.0 mm
05:50 PM 76.1°F24.5°C 71.9°F22.2°C 87% 2.0 mph E3.2 kmh E 9.0 mph14.5 kmh 30.03 in1016.9 mb 0.08 in2.0 mm 0.00 in0.0 mm 0.12 in3.0 mm
05:55 PM 76.1°F24.5°C 71.9°F22.2°C 87% 3.0 mph E4.8 kmh E 9.0 mph14.5 kmh 30.03 in1016.9 mb 0.08 in2.0 mm 0.00 in0.0 mm 0.12 in3.0 mm
06:00 PM 76.2°F24.6°C 72.0°F22.2°C 87% 2.0 mph ENE3.2 kmh ENE 7.0 mph11.3 kmh 30.04 in1017.3 mb 0.08 in2.0 mm 0.00 in0.0 mm 0.12 in3.0 mm
06:05 PM 76.3°F24.6°C 72.1°F22.3°C 87% 2.0 mph ENE3.2 kmh ENE 8.0 mph12.9 kmh 30.03 in1016.9 mb 0.08 in2.0 mm 0.00 in0.0 mm 0.12 in3.0 mm
06:10 PM 76.2°F24.6°C 72.0°F22.2°C 87% 2.0 mph E3.2 kmh E 8.0 mph12.9 kmh 30.04 in1017.3 mb 0.08 in2.0 mm 0.00 in0.0 mm 0.12 in3.0 mm
06:15 PM 76.1°F24.5°C 71.9°F22.2°C 87% 2.0 mph E3.2 kmh E 6.0 mph9.7 kmh 30.04 in1017.3 mb 0.08 in2.0 mm 0.00 in0.0 mm 0.12 in3.0 mm
06:20 PM 76.0°F24.4°C 71.8°F22.1°C 87% 2.0 mph ENE3.2 kmh ENE 6.0 mph9.7 kmh 30.04 in1017.3 mb 0.06 in1.5 mm 0.00 in0.0 mm 0.12 in3.0 mm
06:25 PM 75.9°F24.4°C 71.8°F22.1°C 87% 2.0 mph ENE3.2 kmh ENE 6.0 mph9.7 kmh 30.04 in1017.3 mb 0.02 in0.5 mm 0.00 in0.0 mm 0.12 in3.0 mm
06:30 PM 75.8°F24.3°C 71.7°F22.1°C 87% 2.0 mph ENE3.2 kmh ENE 6.0 mph9.7 kmh 30.04 in1017.3 mb 0.00 in0.0 mm 0.00 in0.0 mm 0.12 in3.0 mm
06:35 PM 75.8°F24.3°C 71.7°F22.1°C 87% 3.0 mph ENE4.8 kmh ENE 7.0 mph11.3 kmh 30.04 in1017.3 mb 0.00 in0.0 mm 0.00 in0.0 mm 0.12 in3.0 mm
06:40 PM 75.7°F24.3°C 71.6°F22.0°C 87% 2.0 mph E3.2 kmh E 7.0 mph11.3 kmh 30.04 in1017.3 mb 0.00 in0.0 mm 0.00 in0.0 mm 0.12 in3.0 mm
06:45 PM 75.7°F24.3°C 71.9°F22.2°C 88% 2.0 mph ENE3.2 kmh ENE 6.0 mph9.7 kmh 30.04 in1017.3 mb 0.00 in0.0 mm 0.00 in0.0 mm 0.12 in3.0 mm
06:50 PM 75.6°F24.2°C 71.5°F21.9°C 87% 2.0 mph ENE3.2 kmh ENE 6.0 mph9.7 kmh 30.04 in1017.3 mb 0.00 in0.0 mm 0.00 in0.0 mm 0.12 in3.0 mm
06:55 PM 75.6°F24.2°C 71.8°F22.1°C 88% 3.0 mph ENE4.8 kmh ENE 8.0 mph12.9 kmh 30.04 in1017.3 mb 0.00 in0.0 mm 0.00 in0.0 mm 0.12 in3.0 mm
07:00 PM 75.5°F24.2°C 71.7°F22.1°C 88% 3.0 mph ENE4.8 kmh ENE 8.0 mph12.9 kmh 30.04 in1017.3 mb 0.00 in0.0 mm 0.00 in0.0 mm 0.12 in3.0 mm
07:05 PM 75.5°F24.2°C 71.7°F22.1°C 88% 3.0 mph ENE4.8 kmh ENE 7.0 mph11.3 kmh 30.05 in1017.6 mb 0.00 in0.0 mm 0.00 in0.0 mm 0.12 in3.0 mm
07:10 PM 75.3°F24.1°C 71.2°F21.8°C 87% 4.0 mph NE6.4 kmh NE 13.0 mph20.9 kmh 30.04 in1017.3 mb 0.00 in0.0 mm 0.00 in0.0 mm 0.12 in3.0 mm
07:15 PM 75.2°F24.0°C 71.1°F21.7°C 87% 4.0 mph NE6.4 kmh NE 13.0 mph20.9 kmh 30.04 in1017.3 mb 0.00 in0.0 mm 0.00 in0.0 mm 0.12 in3.0 mm
07:20 PM 75.1°F23.9°C 71.0°F21.7°C 87% 3.0 mph NE4.8 kmh NE 7.0 mph11.3 kmh 30.04 in1017.3 mb 0.00 in0.0 mm 0.00 in0.0 mm 0.12 in3.0 mm
07:25 PM 74.9°F23.8°C 70.8°F21.6°C 87% 3.0 mph NE4.8 kmh NE 7.0 mph11.3 kmh 30.03 in1016.9 mb 0.00 in0.0 mm 0.00 in0.0 mm 0.12 in3.0 mm
07:30 PM 74.7°F23.7°C 70.6°F21.4°C 87% 3.0 mph NE4.8 kmh NE 7.0 mph11.3 kmh 30.04 in1017.3 mb 0.00 in0.0 mm 0.00 in0.0 mm 0.12 in3.0 mm
07:35 PM 74.5°F23.6°C 70.4°F21.3°C 87% 2.0 mph E3.2 kmh E 7.0 mph11.3 kmh 30.04 in1017.3 mb 0.00 in0.0 mm 0.00 in0.0 mm 0.12 in3.0 mm
07:40 PM 74.2°F23.4°C 70.1°F21.2°C 87% 2.0 mph ENE3.2 kmh ENE 6.0 mph9.7 kmh 30.04 in1017.3 mb 0.00 in0.0 mm 0.00 in0.0 mm 0.12 in3.0 mm
07:45 PM 74.0°F23.3°C 69.9°F21.1°C 87% 2.0 mph ENE3.2 kmh ENE 6.0 mph9.7 kmh 30.04 in1017.3 mb 0.00 in0.0 mm 0.00 in0.0 mm 0.12 in3.0 mm
07:50 PM 73.9°F23.3°C 69.8°F21.0°C 87% 2.0 mph ENE3.2 kmh ENE 6.0 mph9.7 kmh 30.04 in1017.3 mb 0.00 in0.0 mm 0.00 in0.0 mm 0.12 in3.0 mm
07:55 PM 73.7°F23.2°C 69.6°F20.9°C 87% 1.0 mph NE1.6 kmh NE 6.0 mph9.7 kmh 30.04 in1017.3 mb 0.00 in0.0 mm 0.00 in0.0 mm 0.12 in3.0 mm
08:00 PM 73.6°F23.1°C 69.5°F20.8°C 87% 2.0 mph NE3.2 kmh NE 7.0 mph11.3 kmh 30.04 in1017.3 mb 0.00 in0.0 mm 0.00 in0.0 mm 0.12 in3.0 mm
08:05 PM 73.5°F23.1°C 69.4°F20.8°C 87% 2.0 mph NE3.2 kmh NE 7.0 mph11.3 kmh 30.04 in1017.3 mb 0.00 in0.0 mm 0.00 in0.0 mm 0.12 in3.0 mm
08:10 PM 73.5°F23.1°C 69.7°F20.9°C 88% 3.0 mph NE4.8 kmh NE 6.0 mph9.7 kmh 30.04 in1017.3 mb 0.00 in0.0 mm 0.00 in0.0 mm 0.12 in3.0 mm
08:15 PM 73.5°F23.1°C 69.4°F20.8°C 87% 3.0 mph NE4.8 kmh NE 8.0 mph12.9 kmh 30.04 in1017.3 mb 0.00 in0.0 mm 0.00 in0.0 mm 0.12 in3.0 mm
08:20 PM 73.6°F23.1°C 69.5°F20.8°C 87% 3.0 mph NE4.8 kmh NE 8.0 mph12.9 kmh 30.04 in1017.3 mb 0.00 in0.0 mm 0.00 in0.0 mm 0.12 in3.0 mm
08:25 PM 73.7°F23.2°C 69.6°F20.9°C 87% 3.0 mph NE4.8 kmh NE 11.0 mph17.7 kmh 30.04 in1017.3 mb 0.00 in0.0 mm 0.00 in0.0 mm 0.12 in3.0 mm
08:30 PM 74.0°F23.3°C 69.9°F21.1°C 87% 5.0 mph NE8.0 kmh NE 11.0 mph17.7 kmh 30.04 in1017.3 mb 0.00 in0.0 mm 0.00 in0.0 mm 0.12 in3.0 mm
08:35 PM 74.2°F23.4°C 70.1°F21.2°C 87% 4.0 mph NE6.4 kmh NE 11.0 mph17.7 kmh 30.04 in1017.3 mb 0.00 in0.0 mm 0.00 in0.0 mm 0.12 in3.0 mm
08:40 PM 74.3°F23.5°C 69.8°F21.0°C 86% 4.0 mph NE6.4 kmh NE 10.0 mph16.1 kmh 30.04 in1017.3 mb 0.00 in0.0 mm 0.00 in0.0 mm 0.12 in3.0 mm
08:45 PM 74.4°F23.6°C 69.9°F21.1°C 86% 4.0 mph NE6.4 kmh NE 12.0 mph19.3 kmh 30.04 in1017.3 mb 0.00 in0.0 mm 0.00 in0.0 mm 0.12 in3.0 mm
08:50 PM 74.4°F23.6°C 69.9°F21.1°C 86% 4.0 mph NE6.4 kmh NE 12.0 mph19.3 kmh 30.04 in1017.3 mb 0.00 in0.0 mm 0.00 in0.0 mm 0.12 in3.0 mm
08:55 PM 74.4°F23.6°C 69.6°F20.9°C 85% 4.0 mph NE6.4 kmh NE 9.0 mph14.5 kmh 30.05 in1017.6 mb 0.00 in0.0 mm 0.00 in0.0 mm 0.12 in3.0 mm
09:00 PM 74.5°F23.6°C 69.7°F20.9°C 85% 3.0 mph NE4.8 kmh NE 10.0 mph16.1 kmh 30.05 in1017.6 mb 0.00 in0.0 mm 0.00 in0.0 mm 0.12 in3.0 mm
09:05 PM 74.5°F23.6°C 69.7°F20.9°C 85% 4.0 mph NE6.4 kmh NE 10.0 mph16.1 kmh 30.05 in1017.6 mb 0.00 in0.0 mm 0.00 in0.0 mm 0.12 in3.0 mm
09:10 PM 74.6°F23.7°C 69.8°F21.0°C 85% 3.0 mph NE4.8 kmh NE 9.0 mph14.5 kmh 30.05 in1017.6 mb 0.00 in0.0 mm 0.00 in0.0 mm 0.12 in3.0 mm
09:15 PM 74.5°F23.6°C 69.7°F20.9°C 85% 3.0 mph NE4.8 kmh NE 9.0 mph14.5 kmh 30.05 in1017.6 mb 0.00 in0.0 mm 0.00 in0.0 mm 0.12 in3.0 mm
09:20 PM 74.6°F23.7°C 69.8°F21.0°C 85% 3.0 mph NE4.8 kmh NE 9.0 mph14.5 kmh 30.05 in1017.6 mb 0.00 in0.0 mm 0.00 in0.0 mm 0.12 in3.0 mm
09:25 PM 74.6°F23.7°C 69.8°F21.0°C 85% 4.0 mph NE6.4 kmh NE 9.0 mph14.5 kmh 30.04 in1017.3 mb 0.00 in0.0 mm 0.00 in0.0 mm 0.12 in3.0 mm
09:30 PM 74.6°F23.7°C 69.8°F21.0°C 85% 4.0 mph NE6.4 kmh NE 11.0 mph17.7 kmh 30.05 in1017.6 mb 0.00 in0.0 mm 0.00 in0.0 mm 0.12 in3.0 mm
09:35 PM 74.6°F23.7°C 69.4°F20.8°C 84% 4.0 mph NE6.4 kmh NE 11.0 mph17.7 kmh 30.04 in1017.3 mb 0.00 in0.0 mm 0.00 in0.0 mm 0.12 in3.0 mm
09:40 PM 74.6°F23.7°C 69.4°F20.8°C 84% 4.0 mph NE6.4 kmh NE 10.0 mph16.1 kmh 30.04 in1017.3 mb 0.00 in0.0 mm 0.00 in0.0 mm 0.12 in3.0 mm
09:45 PM 74.6°F23.7°C 69.4°F20.8°C 84% 4.0 mph NE6.4 kmh NE 8.0 mph12.9 kmh 30.04 in1017.3 mb 0.00 in0.0 mm 0.00 in0.0 mm 0.12 in3.0 mm
09:50 PM 74.6°F23.7°C 69.4°F20.8°C 84% 4.0 mph NE6.4 kmh NE 12.0 mph19.3 kmh 30.04 in1017.3 mb 0.00 in0.0 mm 0.00 in0.0 mm 0.12 in3.0 mm
09:55 PM 74.6°F23.7°C 69.4°F20.8°C 84% 4.0 mph NE6.4 kmh NE 12.0 mph19.3 kmh 30.04 in1017.3 mb 0.00 in0.0 mm 0.00 in0.0 mm 0.12 in3.0 mm
10:00 PM 74.6°F23.7°C 69.4°F20.8°C 84% 3.0 mph NE4.8 kmh NE 10.0 mph16.1 kmh 30.04 in1017.3 mb 0.00 in0.0 mm 0.00 in0.0 mm 0.12 in3.0 mm
10:05 PM 74.6°F23.7°C 69.4°F20.8°C 84% 3.0 mph NE4.8 kmh NE 10.0 mph16.1 kmh 30.04 in1017.3 mb 0.00 in0.0 mm 0.00 in0.0 mm 0.12 in3.0 mm
10:10 PM 74.6°F23.7°C 69.4°F20.8°C 84% 4.0 mph NE6.4 kmh NE 10.0 mph16.1 kmh 30.04 in1017.3 mb 0.00 in0.0 mm 0.00 in0.0 mm 0.12 in3.0 mm
10:15 PM 74.6°F23.7°C 69.4°F20.8°C 84% 4.0 mph NNE6.4 kmh NNE 8.0 mph12.9 kmh 30.04 in1017.3 mb 0.00 in0.0 mm 0.00 in0.0 mm 0.12 in3.0 mm
10:20 PM 74.6°F23.7°C 69.1°F20.6°C 83% 4.0 mph NE6.4 kmh NE 8.0 mph12.9 kmh 30.04 in1017.3 mb 0.00 in0.0 mm 0.00 in0.0 mm 0.12 in3.0 mm
10:25 PM 74.6°F23.7°C 69.1°F20.6°C 83% 4.0 mph NE6.4 kmh NE 8.0 mph12.9 kmh 30.04 in1017.3 mb 0.00 in0.0 mm 0.00 in0.0 mm 0.12 in3.0 mm
10:30 PM 74.6°F23.7°C 69.1°F20.6°C 83% 4.0 mph NE6.4 kmh NE 9.0 mph14.5 kmh 30.04 in1017.3 mb 0.00 in0.0 mm 0.00 in0.0 mm 0.12 in3.0 mm
10:35 PM 74.6°F23.7°C 69.1°F20.6°C 83% 4.0 mph NE6.4 kmh NE 11.0 mph17.7 kmh 30.04 in1017.3 mb 0.00 in0.0 mm 0.00 in0.0 mm 0.12 in3.0 mm
10:40 PM 74.5°F23.6°C 69.0°F20.6°C 83% 4.0 mph NE6.4 kmh NE 11.0 mph17.7 kmh 30.04 in1017.3 mb 0.00 in0.0 mm 0.00 in0.0 mm 0.12 in3.0 mm
10:45 PM 74.5°F23.6°C 69.0°F20.6°C 83% 4.0 mph NE6.4 kmh NE 8.0 mph12.9 kmh 30.05 in1017.6 mb 0.00 in0.0 mm 0.00 in0.0 mm 0.12 in3.0 mm
10:50 PM 74.6°F23.7°C 69.1°F20.6°C 83% 5.0 mph NE8.0 kmh NE 8.0 mph12.9 kmh 30.05 in1017.6 mb 0.00 in0.0 mm 0.00 in0.0 mm 0.12 in3.0 mm
10:55 PM 74.7°F23.7°C 69.2°F20.7°C 83% 5.0 mph NE8.0 kmh NE 10.0 mph16.1 kmh 30.05 in1017.6 mb 0.00 in0.0 mm 0.00 in0.0 mm 0.12 in3.0 mm
11:00 PM 74.8°F23.8°C 69.3°F20.7°C 83% 4.0 mph NE6.4 kmh NE 10.0 mph16.1 kmh 30.05 in1017.6 mb 0.00 in0.0 mm 0.00 in0.0 mm 0.12 in3.0 mm
11:05 PM 74.9°F23.8°C 69.4°F20.8°C 83% 4.0 mph NE6.4 kmh NE 10.0 mph16.1 kmh 30.05 in1017.6 mb 0.00 in0.0 mm 0.00 in0.0 mm 0.12 in3.0 mm
11:10 PM 75.0°F23.9°C 69.5°F20.8°C 83% 4.0 mph NE6.4 kmh NE 11.0 mph17.7 kmh 30.05 in1017.6 mb 0.00 in0.0 mm 0.00 in0.0 mm 0.12 in3.0 mm
11:15 PM 75.1°F23.9°C 69.6°F20.9°C 83% 4.0 mph NE6.4 kmh NE 11.0 mph17.7 kmh 30.05 in1017.6 mb 0.00 in0.0 mm 0.00 in0.0 mm 0.12 in3.0 mm
11:20 PM 75.2°F24.0°C 69.7°F20.9°C 83% 4.0 mph NE6.4 kmh NE 11.0 mph17.7 kmh 30.05 in1017.6 mb 0.00 in0.0 mm 0.00 in0.0 mm 0.12 in3.0 mm
11:25 PM 75.3°F24.1°C 69.4°F20.8°C 82% 4.0 mph NE6.4 kmh NE 11.0 mph17.7 kmh 30.04 in1017.3 mb 0.00 in0.0 mm 0.00 in0.0 mm 0.12 in3.0 mm
11:30 PM 75.3°F24.1°C 69.4°F20.8°C 82% 4.0 mph NE6.4 kmh NE 10.0 mph16.1 kmh 30.04 in1017.3 mb 0.00 in0.0 mm 0.00 in0.0 mm 0.12 in3.0 mm
11:35 PM 75.3°F24.1°C 69.4°F20.8°C 82% 4.0 mph NE6.4 kmh NE 8.0 mph12.9 kmh 30.04 in1017.3 mb 0.00 in0.0 mm 0.00 in0.0 mm 0.12 in3.0 mm
11:40 PM 75.4°F24.1°C 69.9°F21.1°C 83% 3.0 mph NE4.8 kmh NE 10.0 mph16.1 kmh 30.04 in1017.3 mb 0.00 in0.0 mm 0.00 in0.0 mm 0.12 in3.0 mm
11:45 PM 75.4°F24.1°C 69.9°F21.1°C 83% 4.0 mph NE6.4 kmh NE 10.0 mph16.1 kmh 30.04 in1017.3 mb 0.00 in0.0 mm 0.00 in0.0 mm 0.12 in3.0 mm
11:50 PM 75.4°F24.1°C 69.5°F20.8°C 82% 4.0 mph NE6.4 kmh NE 8.0 mph12.9 kmh 30.04 in1017.3 mb 0.00 in0.0 mm 0.00 in0.0 mm 0.12 in3.0 mm
11:55 PM 75.5°F24.2°C 70.0°F21.1°C 83% 4.0 mph NNE6.4 kmh NNE 8.0 mph12.9 kmh 30.04 in1017.3 mb 0.00 in0.0 mm 0.00 in0.0 mm 0.12 in3.0 mm